Test Metars

herunterladen

LFOB 070630Z AUTO 31004KT CAVOK 06/06 Q1015 NOSIG

 

Available data for LFOB from the past 2 hours
BEAUVAIS/TILLE(A
Metar
LFOB 070630Z AUTO 31004KT CAVOK 06/06 Q1015 NOSIG

06:30 UTC

Wind: 310° 4kt

Visibility:

Sky:

Temp: 6 deg C / 42.8 deg F

Dewpoint: 6 deg C / 42.8 deg F

Pressure: 1015 hPa

TAF
TAF LFOB 070500Z 0706/0806 29004KT 5000 BR NSC BECMG 0706/0708 9999 NSW BECMG 0800/0803 14010KT BECMG 0803/0805 4000 RA OVC012
zeugnisse herunterladen icloud browser download several photos herunterladen huawei hisuite kostenlosen

Réalisateur / Photographe